sensor_id;sensor_type;location;lat;lon;timestamp;temperature;humidity
57833;DHT22;43667;53.036;6.740;2022-10-31T00:02:25;12.20;99.90
57833;DHT22;43667;53.036;6.740;2022-10-31T00:04:50;12.10;99.90
57833;DHT22;43667;53.036;6.740;2022-10-31T00:07:16;12.10;99.90
57833;DHT22;43667;53.036;6.740;2022-10-31T00:09:41;12.10;99.90
57833;DHT22;43667;53.036;6.740;2022-10-31T00:12:07;12.20;99.90
57833;DHT22;43667;53.036;6.740;2022-10-31T00:14:32;12.10;99.90
57833;DHT22;43667;53.036;6.740;2022-10-31T00:16:58;12.10;99.90
57833;DHT22;43667;53.036;6.740;2022-10-31T00:19:23;12.10;99.90
57833;DHT22;43667;53.036;6.740;2022-10-31T00:21:51;12.10;99.90
57833;DHT22;43667;53.036;6.740;2022-10-31T00:24:17;12.00;99.90
57833;DHT22;43667;53.036;6.740;2022-10-31T00:26:42;12.00;99.90
57833;DHT22;43667;53.036;6.740;2022-10-31T00:29:08;12.00;99.90
57833;DHT22;43667;53.036;6.740;2022-10-31T00:31:33;12.00;99.90
57833;DHT22;43667;53.036;6.740;2022-10-31T00:33:59;12.00;99.90
57833;DHT22;43667;53.036;6.740;2022-10-31T00:36:24;12.00;99.90
57833;DHT22;43667;53.036;6.740;2022-10-31T00:38:50;12.00;99.90
57833;DHT22;43667;53.036;6.740;2022-10-31T00:41:17;12.00;99.90
57833;DHT22;43667;53.036;6.740;2022-10-31T00:43:43;12.00;99.90
57833;DHT22;43667;53.036;6.740;2022-10-31T00:46:10;11.90;99.90
57833;DHT22;43667;53.036;6.740;2022-10-31T00:48:35;12.00;99.90
57833;DHT22;43667;53.036;6.740;2022-10-31T00:51:01;12.00;99.90
57833;DHT22;43667;53.036;6.740;2022-10-31T00:53:26;11.90;99.90
57833;DHT22;43667;53.036;6.740;2022-10-31T00:55:52;11.90;99.90
57833;DHT22;43667;53.036;6.740;2022-10-31T00:58:17;12.00;99.90
57833;DHT22;43667;53.036;6.740;2022-10-31T01:00:43;12.00;99.90
57833;DHT22;43667;53.036;6.740;2022-10-31T01:03:08;11.90;99.90
57833;DHT22;43667;53.036;6.740;2022-10-31T01:05:34;11.90;99.90
57833;DHT22;43667;53.036;6.740;2022-10-31T01:07:59;11.90;99.90
57833;DHT22;43667;53.036;6.740;2022-10-31T01:10:25;11.80;99.90
57833;DHT22;43667;53.036;6.740;2022-10-31T01:12:51;11.70;99.90
57833;DHT22;43667;53.036;6.740;2022-10-31T01:15:19;11.80;99.90
57833;DHT22;43667;53.036;6.740;2022-10-31T01:17:45;11.70;99.90
57833;DHT22;43667;53.036;6.740;2022-10-31T01:20:13;11.70;99.90
57833;DHT22;43667;53.036;6.740;2022-10-31T01:22:39;11.70;99.90
57833;DHT22;43667;53.036;6.740;2022-10-31T01:25:05;11.80;99.90
57833;DHT22;43667;53.036;6.740;2022-10-31T01:27:31;11.80;99.90
57833;DHT22;43667;53.036;6.740;2022-10-31T01:29:57;11.80;99.90
57833;DHT22;43667;53.036;6.740;2022-10-31T01:32:23;11.70;99.90
57833;DHT22;43667;53.036;6.740;2022-10-31T01:34:48;11.80;99.90
57833;DHT22;43667;53.036;6.740;2022-10-31T01:37:14;11.70;99.90
57833;DHT22;43667;53.036;6.740;2022-10-31T01:39:40;11.80;99.90
57833;DHT22;43667;53.036;6.740;2022-10-31T01:42:05;11.70;99.90
57833;DHT22;43667;53.036;6.740;2022-10-31T01:46:57;11.70;99.90
57833;DHT22;43667;53.036;6.740;2022-10-31T01:49:42;11.70;99.90
57833;DHT22;43667;53.036;6.740;2022-10-31T01:52:19;11.70;99.90
57833;DHT22;43667;53.036;6.740;2022-10-31T01:54:48;11.70;99.90
57833;DHT22;43667;53.036;6.740;2022-10-31T01:57:18;11.70;99.90
57833;DHT22;43667;53.036;6.740;2022-10-31T01:59:48;11.60;99.90
57833;DHT22;43667;53.036;6.740;2022-10-31T02:02:16;11.60;99.90
57833;DHT22;43667;53.036;6.740;2022-10-31T02:04:42;11.60;99.90
57833;DHT22;43667;53.036;6.740;2022-10-31T02:07:13;11.60;99.90
57833;DHT22;43667;53.036;6.740;2022-10-31T02:09:40;11.50;99.90
57833;DHT22;43667;53.036;6.740;2022-10-31T02:12:06;11.50;99.90
57833;DHT22;43667;53.036;6.740;2022-10-31T02:14:34;11.50;99.90
57833;DHT22;43667;53.036;6.740;2022-10-31T02:17:00;11.40;99.90
57833;DHT22;43667;53.036;6.740;2022-10-31T02:19:33;11.40;99.90
57833;DHT22;43667;53.036;6.740;2022-10-31T02:22:09;11.30;99.90
57833;DHT22;43667;53.036;6.740;2022-10-31T02:28:00;11.20;99.90
57833;DHT22;43667;53.036;6.740;2022-10-31T02:33:30;11.10;99.90
57833;DHT22;43667;53.036;6.740;2022-10-31T02:38:58;11.00;99.90
57833;DHT22;43667;53.036;6.740;2022-10-31T02:44:29;10.90;99.90
57833;DHT22;43667;53.036;6.740;2022-10-31T02:47:12;10.90;99.90
57833;DHT22;43667;53.036;6.740;2022-10-31T02:49:55;10.80;99.90
57833;DHT22;43667;53.036;6.740;2022-10-31T02:52:27;10.80;99.90
57833;DHT22;43667;53.036;6.740;2022-10-31T02:54:54;10.70;99.90
57833;DHT22;43667;53.036;6.740;2022-10-31T02:57:24;10.70;99.90
57833;DHT22;43667;53.036;6.740;2022-10-31T02:59:53;10.70;99.90
57833;DHT22;43667;53.036;6.740;2022-10-31T03:02:28;10.70;99.90
57833;DHT22;43667;53.036;6.740;2022-10-31T03:05:23;10.60;99.90
57833;DHT22;43667;53.036;6.740;2022-10-31T03:08:19;10.60;99.90
57833;DHT22;43667;53.036;6.740;2022-10-31T03:10:56;10.50;99.90
57833;DHT22;43667;53.036;6.740;2022-10-31T03:13:59;10.50;99.90
57833;DHT22;43667;53.036;6.740;2022-10-31T03:16:37;10.50;99.90
57833;DHT22;43667;53.036;6.740;2022-10-31T03:19:08;10.50;99.90
57833;DHT22;43667;53.036;6.740;2022-10-31T03:21:57;10.40;99.90
57833;DHT22;43667;53.036;6.740;2022-10-31T03:24:28;10.40;99.90
57833;DHT22;43667;53.036;6.740;2022-10-31T03:26:57;10.40;99.90
57833;DHT22;43667;53.036;6.740;2022-10-31T03:29:27;10.30;99.90
57833;DHT22;43667;53.036;6.740;2022-10-31T03:32:07;10.30;99.90
57833;DHT22;43667;53.036;6.740;2022-10-31T03:34:35;10.20;99.90
57833;DHT22;43667;53.036;6.740;2022-10-31T03:37:04;10.20;99.90
57833;DHT22;43667;53.036;6.740;2022-10-31T03:39:31;10.10;99.90
57833;DHT22;43667;53.036;6.740;2022-10-31T03:42:18;10.10;99.90
57833;DHT22;43667;53.036;6.740;2022-10-31T03:44:55;10.10;99.90
57833;DHT22;43667;53.036;6.740;2022-10-31T03:47:22;10.00;99.90
57833;DHT22;43667;53.036;6.740;2022-10-31T03:49:48;10.00;99.90
57833;DHT22;43667;53.036;6.740;2022-10-31T03:52:36;10.00;99.90
57833;DHT22;43667;53.036;6.740;2022-10-31T03:55:50;10.00;99.90
57833;DHT22;43667;53.036;6.740;2022-10-31T03:58:00;9.90;99.90
57833;DHT22;43667;53.036;6.740;2022-10-31T04:00:30;9.90;99.90
57833;DHT22;43667;53.036;6.740;2022-10-31T04:03:01;9.90;99.90
57833;DHT22;43667;53.036;6.740;2022-10-31T04:05:29;9.90;99.90
57833;DHT22;43667;53.036;6.740;2022-10-31T04:07:58;9.80;99.90
57833;DHT22;43667;53.036;6.740;2022-10-31T04:10:27;9.80;99.90
57833;DHT22;43667;53.036;6.740;2022-10-31T04:13:02;9.80;99.90
57833;DHT22;43667;53.036;6.740;2022-10-31T04:15:30;9.70;99.90
57833;DHT22;43667;53.036;6.740;2022-10-31T04:17:58;9.70;99.90
57833;DHT22;43667;53.036;6.740;2022-10-31T04:20:36;9.70;99.90
57833;DHT22;43667;53.036;6.740;2022-10-31T04:23:03;9.70;99.90
57833;DHT22;43667;53.036;6.740;2022-10-31T04:25:29;9.70;99.90
57833;DHT22;43667;53.036;6.740;2022-10-31T04:27:54;9.70;99.90
57833;DHT22;43667;53.036;6.740;2022-10-31T04:30:20;9.60;99.90
57833;DHT22;43667;53.036;6.740;2022-10-31T04:32:46;9.60;99.90
57833;DHT22;43667;53.036;6.740;2022-10-31T04:35:12;9.60;99.90
57833;DHT22;43667;53.036;6.740;2022-10-31T04:37:38;9.50;99.90
57833;DHT22;43667;53.036;6.740;2022-10-31T04:40:04;9.50;99.90
57833;DHT22;43667;53.036;6.740;2022-10-31T04:42:30;9.50;99.90
57833;DHT22;43667;53.036;6.740;2022-10-31T04:44:55;9.50;99.90
57833;DHT22;43667;53.036;6.740;2022-10-31T04:47:21;9.50;99.90
57833;DHT22;43667;53.036;6.740;2022-10-31T04:49:47;9.40;99.90
57833;DHT22;43667;53.036;6.740;2022-10-31T04:52:13;9.40;99.90
57833;DHT22;43667;53.036;6.740;2022-10-31T04:54:38;9.40;99.90
57833;DHT22;43667;53.036;6.740;2022-10-31T04:57:04;9.40;99.90
57833;DHT22;43667;53.036;6.740;2022-10-31T04:59:29;9.40;99.90
57833;DHT22;43667;53.036;6.740;2022-10-31T05:01:55;9.40;99.90
57833;DHT22;43667;53.036;6.740;2022-10-31T05:04:21;9.30;99.90
57833;DHT22;43667;53.036;6.740;2022-10-31T05:06:46;9.30;99.90
57833;DHT22;43667;53.036;6.740;2022-10-31T05:09:12;9.30;99.90
57833;DHT22;43667;53.036;6.740;2022-10-31T05:11:38;9.30;99.90
57833;DHT22;43667;53.036;6.740;2022-10-31T05:14:03;9.20;99.90
57833;DHT22;43667;53.036;6.740;2022-10-31T05:16:29;9.20;99.90
57833;DHT22;43667;53.036;6.740;2022-10-31T05:18:54;9.20;99.90
57833;DHT22;43667;53.036;6.740;2022-10-31T05:21:20;9.20;99.90
57833;DHT22;43667;53.036;6.740;2022-10-31T05:23:45;9.20;99.90
57833;DHT22;43667;53.036;6.740;2022-10-31T05:26:11;9.20;99.90
57833;DHT22;43667;53.036;6.740;2022-10-31T05:28:36;9.10;99.90
57833;DHT22;43667;53.036;6.740;2022-10-31T05:31:02;9.10;99.90
57833;DHT22;43667;53.036;6.740;2022-10-31T05:33:28;9.10;99.90
57833;DHT22;43667;53.036;6.740;2022-10-31T05:35:53;9.10;99.90
57833;DHT22;43667;53.036;6.740;2022-10-31T05:38:19;9.10;99.90
57833;DHT22;43667;53.036;6.740;2022-10-31T05:40:44;9.00;99.90
57833;DHT22;43667;53.036;6.740;2022-10-31T05:43:11;9.00;99.90
57833;DHT22;43667;53.036;6.740;2022-10-31T05:45:36;9.00;99.90
57833;DHT22;43667;53.036;6.740;2022-10-31T05:48:02;9.00;99.90
57833;DHT22;43667;53.036;6.740;2022-10-31T05:50:30;9.00;99.90
57833;DHT22;43667;53.036;6.740;2022-10-31T05:53:01;9.00;99.90
57833;DHT22;43667;53.036;6.740;2022-10-31T05:55:27;9.00;99.90
57833;DHT22;43667;53.036;6.740;2022-10-31T05:57:54;9.00;99.90
57833;DHT22;43667;53.036;6.740;2022-10-31T06:00:21;9.00;99.90
57833;DHT22;43667;53.036;6.740;2022-10-31T06:02:47;8.90;99.90
57833;DHT22;43667;53.036;6.740;2022-10-31T06:05:13;8.90;99.90
57833;DHT22;43667;53.036;6.740;2022-10-31T06:07:38;8.90;99.90
57833;DHT22;43667;53.036;6.740;2022-10-31T06:10:06;8.80;99.90
57833;DHT22;43667;53.036;6.740;2022-10-31T06:12:32;8.80;99.90
57833;DHT22;43667;53.036;6.740;2022-10-31T06:15:03;8.80;99.90
57833;DHT22;43667;53.036;6.740;2022-10-31T06:17:29;8.80;99.90
57833;DHT22;43667;53.036;6.740;2022-10-31T06:19:55;8.70;99.90
57833;DHT22;43667;53.036;6.740;2022-10-31T06:22:20;8.70;99.90
57833;DHT22;43667;53.036;6.740;2022-10-31T06:24:46;8.60;99.90
57833;DHT22;43667;53.036;6.740;2022-10-31T06:27:11;8.60;99.90
57833;DHT22;43667;53.036;6.740;2022-10-31T06:29:37;8.60;99.90
57833;DHT22;43667;53.036;6.740;2022-10-31T06:32:03;8.60;99.90
57833;DHT22;43667;53.036;6.740;2022-10-31T06:34:28;8.50;99.90
57833;DHT22;43667;53.036;6.740;2022-10-31T06:36:54;8.60;99.90
57833;DHT22;43667;53.036;6.740;2022-10-31T06:39:19;8.60;99.90
57833;DHT22;43667;53.036;6.740;2022-10-31T06:41:47;8.60;99.90
57833;DHT22;43667;53.036;6.740;2022-10-31T06:44:13;8.60;99.90
57833;DHT22;43667;53.036;6.740;2022-10-31T06:46:39;8.60;99.90
57833;DHT22;43667;53.036;6.740;2022-10-31T06:49:04;8.60;99.90
57833;DHT22;43667;53.036;6.740;2022-10-31T06:51:30;8.60;99.90
57833;DHT22;43667;53.036;6.740;2022-10-31T06:53:56;8.50;99.90
57833;DHT22;43667;53.036;6.740;2022-10-31T06:56:21;8.60;99.90
57833;DHT22;43667;53.036;6.740;2022-10-31T06:58:47;8.60;99.90
57833;DHT22;43667;53.036;6.740;2022-10-31T07:01:12;8.60;99.90
57833;DHT22;43667;53.036;6.740;2022-10-31T07:03:38;8.70;99.90
57833;DHT22;43667;53.036;6.740;2022-10-31T07:06:03;8.70;99.90
57833;DHT22;43667;53.036;6.740;2022-10-31T07:08:29;8.70;99.90
57833;DHT22;43667;53.036;6.740;2022-10-31T07:10:57;8.70;99.90
57833;DHT22;43667;53.036;6.740;2022-10-31T07:13:23;8.70;99.90
57833;DHT22;43667;53.036;6.740;2022-10-31T07:15:54;8.80;99.90
57833;DHT22;43667;53.036;6.740;2022-10-31T07:18:20;8.80;99.90
57833;DHT22;43667;53.036;6.740;2022-10-31T07:20:47;8.80;99.90
57833;DHT22;43667;53.036;6.740;2022-10-31T07:23:12;8.80;99.90
57833;DHT22;43667;53.036;6.740;2022-10-31T07:25:39;8.80;99.90
57833;DHT22;43667;53.036;6.740;2022-10-31T07:28:05;8.80;99.90
57833;DHT22;43667;53.036;6.740;2022-10-31T07:30:31;8.70;99.90
57833;DHT22;43667;53.036;6.740;2022-10-31T07:32:57;8.70;99.90
57833;DHT22;43667;53.036;6.740;2022-10-31T07:35:24;8.70;99.90
57833;DHT22;43667;53.036;6.740;2022-10-31T07:37:51;8.70;99.90
57833;DHT22;43667;53.036;6.740;2022-10-31T07:40:17;8.60;99.90
57833;DHT22;43667;53.036;6.740;2022-10-31T07:42:45;8.70;99.90
57833;DHT22;43667;53.036;6.740;2022-10-31T07:45:13;8.80;99.90
57833;DHT22;43667;53.036;6.740;2022-10-31T07:47:50;8.80;99.90
57833;DHT22;43667;53.036;6.740;2022-10-31T07:50:21;8.90;99.90
57833;DHT22;43667;53.036;6.740;2022-10-31T07:52:47;8.90;99.90
57833;DHT22;43667;53.036;6.740;2022-10-31T07:55:13;9.00;99.90
57833;DHT22;43667;53.036;6.740;2022-10-31T07:57:39;9.00;99.90
57833;DHT22;43667;53.036;6.740;2022-10-31T08:00:07;9.10;99.90
57833;DHT22;43667;53.036;6.740;2022-10-31T08:02:34;9.20;99.90
57833;DHT22;43667;53.036;6.740;2022-10-31T08:04:59;9.30;99.90
57833;DHT22;43667;53.036;6.740;2022-10-31T08:07:27;9.40;99.90
57833;DHT22;43667;53.036;6.740;2022-10-31T08:09:53;9.50;99.90
57833;DHT22;43667;53.036;6.740;2022-10-31T08:12:19;9.60;99.90
57833;DHT22;43667;53.036;6.740;2022-10-31T08:14:44;9.70;99.90
57833;DHT22;43667;53.036;6.740;2022-10-31T08:17:10;9.70;99.90
57833;DHT22;43667;53.036;6.740;2022-10-31T08:19:36;9.80;99.90
57833;DHT22;43667;53.036;6.740;2022-10-31T08:22:02;9.80;99.90
57833;DHT22;43667;53.036;6.740;2022-10-31T08:24:27;10.00;99.90
57833;DHT22;43667;53.036;6.740;2022-10-31T08:26:53;10.10;99.90
57833;DHT22;43667;53.036;6.740;2022-10-31T08:29:19;10.20;99.90
57833;DHT22;43667;53.036;6.740;2022-10-31T08:31:44;10.30;99.90
57833;DHT22;43667;53.036;6.740;2022-10-31T08:34:10;10.40;99.90
57833;DHT22;43667;53.036;6.740;2022-10-31T08:36:35;10.50;99.90
57833;DHT22;43667;53.036;6.740;2022-10-31T08:39:01;10.60;99.90
57833;DHT22;43667;53.036;6.740;2022-10-31T08:41:27;10.70;99.90
57833;DHT22;43667;53.036;6.740;2022-10-31T08:43:53;10.80;99.90
57833;DHT22;43667;53.036;6.740;2022-10-31T08:46:19;10.90;99.90
57833;DHT22;43667;53.036;6.740;2022-10-31T08:48:47;11.00;99.90
57833;DHT22;43667;53.036;6.740;2022-10-31T08:51:12;11.20;99.90
57833;DHT22;43667;53.036;6.740;2022-10-31T08:53:38;11.30;99.90
57833;DHT22;43667;53.036;6.740;2022-10-31T08:56:04;11.40;99.90
57833;DHT22;43667;53.036;6.740;2022-10-31T08:58:30;11.50;99.90
57833;DHT22;43667;53.036;6.740;2022-10-31T09:00:58;11.60;99.90
57833;DHT22;43667;53.036;6.740;2022-10-31T09:03:25;11.70;99.90
57833;DHT22;43667;53.036;6.740;2022-10-31T09:05:56;11.70;99.90
57833;DHT22;43667;53.036;6.740;2022-10-31T09:08:22;11.70;99.90
57833;DHT22;43667;53.036;6.740;2022-10-31T09:10:47;11.80;99.90
57833;DHT22;43667;53.036;6.740;2022-10-31T09:13:15;11.90;99.90
57833;DHT22;43667;53.036;6.740;2022-10-31T09:15:43;11.90;99.90
57833;DHT22;43667;53.036;6.740;2022-10-31T09:18:10;12.00;99.90
57833;DHT22;43667;53.036;6.740;2022-10-31T09:20:37;12.20;99.90
57833;DHT22;43667;53.036;6.740;2022-10-31T09:23:05;12.40;99.90
57833;DHT22;43667;53.036;6.740;2022-10-31T09:25:33;12.50;99.90
57833;DHT22;43667;53.036;6.740;2022-10-31T09:28:00;12.70;99.90
57833;DHT22;43667;53.036;6.740;2022-10-31T09:30:27;12.80;99.90
57833;DHT22;43667;53.036;6.740;2022-10-31T09:32:59;13.00;99.90
57833;DHT22;43667;53.036;6.740;2022-10-31T09:35:25;13.00;99.90
57833;DHT22;43667;53.036;6.740;2022-10-31T09:37:59;13.10;99.90
57833;DHT22;43667;53.036;6.740;2022-10-31T09:40:49;13.10;99.90
57833;DHT22;43667;53.036;6.740;2022-10-31T09:46:11;13.20;99.90
57833;DHT22;43667;53.036;6.740;2022-10-31T09:49:28;13.20;99.90
57833;DHT22;43667;53.036;6.740;2022-10-31T09:51:36;13.30;99.90
57833;DHT22;43667;53.036;6.740;2022-10-31T09:54:09;13.30;99.90
57833;DHT22;43667;53.036;6.740;2022-10-31T09:56:36;13.30;99.90
57833;DHT22;43667;53.036;6.740;2022-10-31T09:59:08;13.30;99.90
57833;DHT22;43667;53.036;6.740;2022-10-31T10:01:56;13.30;99.90
57833;DHT22;43667;53.036;6.740;2022-10-31T10:06:57;13.30;99.90
57833;DHT22;43667;53.036;6.740;2022-10-31T10:09:27;13.30;99.90
57833;DHT22;43667;53.036;6.740;2022-10-31T10:15:43;13.30;99.90
57833;DHT22;43667;53.036;6.740;2022-10-31T10:26:21;13.50;99.90
57833;DHT22;43667;53.036;6.740;2022-10-31T10:28:57;13.50;99.90
57833;DHT22;43667;53.036;6.740;2022-10-31T10:31:26;13.50;99.90
57833;DHT22;43667;53.036;6.740;2022-10-31T10:36:40;13.60;99.90
57833;DHT22;43667;53.036;6.740;2022-10-31T10:39:20;13.70;99.90
57833;DHT22;43667;53.036;6.740;2022-10-31T10:41:49;13.80;99.90
57833;DHT22;43667;53.036;6.740;2022-10-31T10:44:34;13.90;99.90
57833;DHT22;43667;53.036;6.740;2022-10-31T10:47:21;14.00;99.90
57833;DHT22;43667;53.036;6.740;2022-10-31T10:50:18;14.10;99.90
57833;DHT22;43667;53.036;6.740;2022-10-31T10:52:57;14.30;99.90
57833;DHT22;43667;53.036;6.740;2022-10-31T10:55:41;14.40;99.90
57833;DHT22;43667;53.036;6.740;2022-10-31T10:58:10;14.60;99.90
57833;DHT22;43667;53.036;6.740;2022-10-31T11:00:40;14.60;99.90
57833;DHT22;43667;53.036;6.740;2022-10-31T11:03:06;14.70;99.90
57833;DHT22;43667;53.036;6.740;2022-10-31T11:08:30;14.80;99.90
57833;DHT22;43667;53.036;6.740;2022-10-31T11:13:23;14.90;99.90
57833;DHT22;43667;53.036;6.740;2022-10-31T11:15:56;15.00;99.90
57833;DHT22;43667;53.036;6.740;2022-10-31T11:18:25;15.10;99.90
57833;DHT22;43667;53.036;6.740;2022-10-31T11:20:54;15.30;99.90
57833;DHT22;43667;53.036;6.740;2022-10-31T11:23:21;15.40;99.90
57833;DHT22;43667;53.036;6.740;2022-10-31T11:28:18;15.70;99.90
57833;DHT22;43667;53.036;6.740;2022-10-31T11:30:59;15.80;99.90
57833;DHT22;43667;53.036;6.740;2022-10-31T11:33:29;16.00;99.90
57833;DHT22;43667;53.036;6.740;2022-10-31T11:35:56;16.10;99.90
57833;DHT22;43667;53.036;6.740;2022-10-31T11:38:24;16.10;99.90
57833;DHT22;43667;53.036;6.740;2022-10-31T11:41:00;16.20;99.90
57833;DHT22;43667;53.036;6.740;2022-10-31T11:43:29;16.20;99.90
57833;DHT22;43667;53.036;6.740;2022-10-31T11:45:56;16.20;99.90
57833;DHT22;43667;53.036;6.740;2022-10-31T11:48:24;16.10;99.90
57833;DHT22;43667;53.036;6.740;2022-10-31T11:50:57;16.20;99.90
57833;DHT22;43667;53.036;6.740;2022-10-31T11:53:30;16.20;99.90
57833;DHT22;43667;53.036;6.740;2022-10-31T11:56:09;16.20;99.90
57833;DHT22;43667;53.036;6.740;2022-10-31T11:58:35;16.20;99.90
57833;DHT22;43667;53.036;6.740;2022-10-31T12:01:01;16.20;99.90
57833;DHT22;43667;53.036;6.740;2022-10-31T12:03:42;16.20;99.90
57833;DHT22;43667;53.036;6.740;2022-10-31T12:06:21;16.20;99.90
57833;DHT22;43667;53.036;6.740;2022-10-31T12:08:48;16.20;99.90
57833;DHT22;43667;53.036;6.740;2022-10-31T12:14:18;16.20;99.90
57833;DHT22;43667;53.036;6.740;2022-10-31T12:17:05;16.20;99.90
57833;DHT22;43667;53.036;6.740;2022-10-31T12:28:23;16.10;99.90
57833;DHT22;43667;53.036;6.740;2022-10-31T12:39:16;16.10;99.90
57833;DHT22;43667;53.036;6.740;2022-10-31T12:41:46;16.00;99.90
57833;DHT22;43667;53.036;6.740;2022-10-31T12:44:25;15.90;99.90
57833;DHT22;43667;53.036;6.740;2022-10-31T12:52:43;15.80;99.90
57833;DHT22;43667;53.036;6.740;2022-10-31T12:55:20;15.80;99.90
57833;DHT22;43667;53.036;6.740;2022-10-31T12:58:03;15.80;99.90
57833;DHT22;43667;53.036;6.740;2022-10-31T13:00:31;15.90;99.90
57833;DHT22;43667;53.036;6.740;2022-10-31T13:03:26;15.80;99.90
57833;DHT22;43667;53.036;6.740;2022-10-31T13:05:58;15.90;99.90
57833;DHT22;43667;53.036;6.740;2022-10-31T13:08:34;15.90;99.90
57833;DHT22;43667;53.036;6.740;2022-10-31T13:11:23;15.90;99.90
57833;DHT22;43667;53.036;6.740;2022-10-31T13:16:46;15.80;99.90
57833;DHT22;43667;53.036;6.740;2022-10-31T13:19:20;15.70;99.90
57833;DHT22;43667;53.036;6.740;2022-10-31T13:22:03;15.70;99.90
57833;DHT22;43667;53.036;6.740;2022-10-31T13:24:47;15.70;99.90
57833;DHT22;43667;53.036;6.740;2022-10-31T13:27:24;15.90;99.90
57833;DHT22;43667;53.036;6.740;2022-10-31T13:32:47;15.90;99.90
57833;DHT22;43667;53.036;6.740;2022-10-31T13:40:54;16.00;99.90
57833;DHT22;43667;53.036;6.740;2022-10-31T13:43:35;16.10;99.90
57833;DHT22;43667;53.036;6.740;2022-10-31T13:46:23;16.20;99.90
57833;DHT22;43667;53.036;6.740;2022-10-31T13:48:49;16.20;99.90
57833;DHT22;43667;53.036;6.740;2022-10-31T13:51:27;16.20;99.90
57833;DHT22;43667;53.036;6.740;2022-10-31T14:01:34;16.10;99.90
57833;DHT22;43667;53.036;6.740;2022-10-31T14:04:02;16.10;99.90
57833;DHT22;43667;53.036;6.740;2022-10-31T14:06:57;16.10;99.90
57833;DHT22;43667;53.036;6.740;2022-10-31T14:11:54;16.00;99.90
57833;DHT22;43667;53.036;6.740;2022-10-31T14:14:23;16.00;99.90
57833;DHT22;43667;53.036;6.740;2022-10-31T14:16:56;16.00;99.90
57833;DHT22;43667;53.036;6.740;2022-10-31T14:19:23;16.00;99.90
57833;DHT22;43667;53.036;6.740;2022-10-31T14:21:50;15.90;99.90
57833;DHT22;43667;53.036;6.740;2022-10-31T14:27:01;15.80;99.90
57833;DHT22;43667;53.036;6.740;2022-10-31T14:29:32;15.70;99.90
57833;DHT22;43667;53.036;6.740;2022-10-31T14:32:06;15.70;99.90
57833;DHT22;43667;53.036;6.740;2022-10-31T14:40:33;15.70;99.90
57833;DHT22;43667;53.036;6.740;2022-10-31T14:43:16;15.60;99.90
57833;DHT22;43667;53.036;6.740;2022-10-31T14:46:06;15.60;99.90
57833;DHT22;43667;53.036;6.740;2022-10-31T14:51:31;15.50;99.90
57833;DHT22;43667;53.036;6.740;2022-10-31T14:53:59;15.50;99.90
57833;DHT22;43667;53.036;6.740;2022-10-31T14:56:31;15.50;99.90
57833;DHT22;43667;53.036;6.740;2022-10-31T14:59:03;15.60;99.90
57833;DHT22;43667;53.036;6.740;2022-10-31T15:01:35;15.50;99.90
57833;DHT22;43667;53.036;6.740;2022-10-31T15:04:17;15.50;99.90
57833;DHT22;43667;53.036;6.740;2022-10-31T15:06:46;15.40;99.90
57833;DHT22;43667;53.036;6.740;2022-10-31T15:09:24;15.40;99.90
57833;DHT22;43667;53.036;6.740;2022-10-31T15:11:50;15.40;99.90
57833;DHT22;43667;53.036;6.740;2022-10-31T15:14:24;15.30;99.90
57833;DHT22;43667;53.036;6.740;2022-10-31T15:16:50;15.20;99.90
57833;DHT22;43667;53.036;6.740;2022-10-31T15:19:21;15.20;99.90
57833;DHT22;43667;53.036;6.740;2022-10-31T15:21:51;15.20;99.90
57833;DHT22;43667;53.036;6.740;2022-10-31T15:24:17;15.20;99.90
57833;DHT22;43667;53.036;6.740;2022-10-31T15:26:54;15.10;99.90
57833;DHT22;43667;53.036;6.740;2022-10-31T15:29:25;15.00;99.90
57833;DHT22;43667;53.036;6.740;2022-10-31T15:32:09;15.00;99.90
57833;DHT22;43667;53.036;6.740;2022-10-31T15:34:42;15.00;99.90
57833;DHT22;43667;53.036;6.740;2022-10-31T15:37:13;15.00;99.90
57833;DHT22;43667;53.036;6.740;2022-10-31T15:39:39;14.90;99.90
57833;DHT22;43667;53.036;6.740;2022-10-31T15:42:23;14.90;99.90
57833;DHT22;43667;53.036;6.740;2022-10-31T15:47:45;14.80;99.90
57833;DHT22;43667;53.036;6.740;2022-10-31T15:52:57;14.70;99.90
57833;DHT22;43667;53.036;6.740;2022-10-31T15:55:25;14.70;99.90
57833;DHT22;43667;53.036;6.740;2022-10-31T15:57:56;14.60;99.90
57833;DHT22;43667;53.036;6.740;2022-10-31T16:00:27;14.60;99.90
57833;DHT22;43667;53.036;6.740;2022-10-31T16:05:54;14.50;99.90
57833;DHT22;43667;53.036;6.740;2022-10-31T16:13:34;14.30;99.90
57833;DHT22;43667;53.036;6.740;2022-10-31T16:16:03;14.20;99.90
57833;DHT22;43667;53.036;6.740;2022-10-31T16:18:35;14.10;99.90
57833;DHT22;43667;53.036;6.740;2022-10-31T16:21:03;14.10;99.90
57833;DHT22;43667;53.036;6.740;2022-10-31T16:23:28;14.00;99.90
57833;DHT22;43667;53.036;6.740;2022-10-31T16:25:54;14.00;99.90
57833;DHT22;43667;53.036;6.740;2022-10-31T16:28:22;14.00;99.90
57833;DHT22;43667;53.036;6.740;2022-10-31T16:30:54;13.90;99.90
57833;DHT22;43667;53.036;6.740;2022-10-31T16:33:29;13.90;99.90
57833;DHT22;43667;53.036;6.740;2022-10-31T16:35:57;13.80;99.90
57833;DHT22;43667;53.036;6.740;2022-10-31T16:38:23;13.80;99.90
57833;DHT22;43667;53.036;6.740;2022-10-31T16:40:50;13.80;99.90
57833;DHT22;43667;53.036;6.740;2022-10-31T16:43:17;13.70;99.90
57833;DHT22;43667;53.036;6.740;2022-10-31T16:45:46;13.70;99.90
57833;DHT22;43667;53.036;6.740;2022-10-31T16:48:16;13.70;99.90
57833;DHT22;43667;53.036;6.740;2022-10-31T16:50:44;13.60;99.90
57833;DHT22;43667;53.036;6.740;2022-10-31T16:53:12;13.60;99.90
57833;DHT22;43667;53.036;6.740;2022-10-31T16:55:55;13.60;99.90
57833;DHT22;43667;53.036;6.740;2022-10-31T16:58:27;13.50;99.90
57833;DHT22;43667;53.036;6.740;2022-10-31T17:00:53;13.50;99.90
57833;DHT22;43667;53.036;6.740;2022-10-31T17:03:19;13.50;99.90
57833;DHT22;43667;53.036;6.740;2022-10-31T17:05:45;13.50;99.90
57833;DHT22;43667;53.036;6.740;2022-10-31T17:08:11;13.40;99.90
57833;DHT22;43667;53.036;6.740;2022-10-31T17:10:38;13.40;99.90
57833;DHT22;43667;53.036;6.740;2022-10-31T17:13:06;13.40;99.90
57833;DHT22;43667;53.036;6.740;2022-10-31T17:15:37;13.40;99.90
57833;DHT22;43667;53.036;6.740;2022-10-31T17:18:04;13.40;99.90
57833;DHT22;43667;53.036;6.740;2022-10-31T17:20:31;13.40;99.90
57833;DHT22;43667;53.036;6.740;2022-10-31T17:22:58;13.40;99.90
57833;DHT22;43667;53.036;6.740;2022-10-31T17:25:26;13.40;99.90
57833;DHT22;43667;53.036;6.740;2022-10-31T17:27:52;13.50;99.90
57833;DHT22;43667;53.036;6.740;2022-10-31T17:30:19;13.40;99.90
57833;DHT22;43667;53.036;6.740;2022-10-31T17:32:46;13.40;99.90
57833;DHT22;43667;53.036;6.740;2022-10-31T17:35:15;13.40;99.90
57833;DHT22;43667;53.036;6.740;2022-10-31T17:37:44;13.40;99.90
57833;DHT22;43667;53.036;6.740;2022-10-31T17:40:12;13.40;99.90
57833;DHT22;43667;53.036;6.740;2022-10-31T17:42:38;13.50;99.90
57833;DHT22;43667;53.036;6.740;2022-10-31T17:45:05;13.40;99.90
57833;DHT22;43667;53.036;6.740;2022-10-31T17:47:31;13.40;99.90